sensor_id;sensor_type;location;lat;lon;timestamp;P1;durP1;ratioP1;P2;durP2;ratioP2
13485;SDS011;6815;59.336;17.998;2023-02-11T00:00:55;1.23;;;0.67;;
13485;SDS011;6815;59.336;17.998;2023-02-11T00:03:20;1.00;;;0.50;;
13485;SDS011;6815;59.336;17.998;2023-02-11T00:05:55;1.20;;;0.80;;
13485;SDS011;6815;59.336;17.998;2023-02-11T00:08:24;1.50;;;0.80;;
13485;SDS011;6815;59.336;17.998;2023-02-11T00:10:54;2.20;;;0.90;;
13485;SDS011;6815;59.336;17.998;2023-02-11T00:13:21;1.73;;;0.70;;
13485;SDS011;6815;59.336;17.998;2023-02-11T00:15:47;0.97;;;0.60;;
13485;SDS011;6815;59.336;17.998;2023-02-11T00:18:13;0.90;;;0.70;;
13485;SDS011;6815;59.336;17.998;2023-02-11T00:20:39;1.37;;;0.70;;
13485;SDS011;6815;59.336;17.998;2023-02-11T00:23:05;1.70;;;1.00;;
13485;SDS011;6815;59.336;17.998;2023-02-11T00:25:30;1.23;;;1.00;;
13485;SDS011;6815;59.336;17.998;2023-02-11T00:27:56;1.43;;;0.90;;
13485;SDS011;6815;59.336;17.998;2023-02-11T00:30:21;1.10;;;0.90;;
13485;SDS011;6815;59.336;17.998;2023-02-11T00:32:47;1.93;;;1.07;;
13485;SDS011;6815;59.336;17.998;2023-02-11T00:35:12;2.10;;;0.87;;
13485;SDS011;6815;59.336;17.998;2023-02-11T00:37:38;5.43;;;1.20;;
13485;SDS011;6815;59.336;17.998;2023-02-11T00:40:03;2.33;;;1.30;;
13485;SDS011;6815;59.336;17.998;2023-02-11T00:42:29;2.07;;;1.33;;
13485;SDS011;6815;59.336;17.998;2023-02-11T00:44:55;3.60;;;1.03;;
13485;SDS011;6815;59.336;17.998;2023-02-11T00:47:20;2.37;;;1.33;;
13485;SDS011;6815;59.336;17.998;2023-02-11T00:49:45;2.03;;;1.23;;
13485;SDS011;6815;59.336;17.998;2023-02-11T00:52:12;2.57;;;1.30;;
13485;SDS011;6815;59.336;17.998;2023-02-11T00:54:39;2.03;;;1.40;;
13485;SDS011;6815;59.336;17.998;2023-02-11T00:57:05;3.57;;;1.47;;
13485;SDS011;6815;59.336;17.998;2023-02-11T00:59:31;1.77;;;1.30;;
13485;SDS011;6815;59.336;17.998;2023-02-11T01:01:57;1.83;;;1.40;;
13485;SDS011;6815;59.336;17.998;2023-02-11T01:04:22;3.10;;;1.33;;
13485;SDS011;6815;59.336;17.998;2023-02-11T01:06:48;2.03;;;1.50;;
13485;SDS011;6815;59.336;17.998;2023-02-11T01:09:13;3.67;;;1.67;;
13485;SDS011;6815;59.336;17.998;2023-02-11T01:11:40;2.43;;;1.40;;
13485;SDS011;6815;59.336;17.998;2023-02-11T01:14:05;3.83;;;1.27;;
13485;SDS011;6815;59.336;17.998;2023-02-11T01:16:31;1.60;;;1.40;;
13485;SDS011;6815;59.336;17.998;2023-02-11T01:18:56;2.10;;;1.57;;
13485;SDS011;6815;59.336;17.998;2023-02-11T01:21:23;2.63;;;1.63;;
13485;SDS011;6815;59.336;17.998;2023-02-11T01:23:49;1.87;;;1.40;;
13485;SDS011;6815;59.336;17.998;2023-02-11T01:26:17;3.63;;;1.73;;
13485;SDS011;6815;59.336;17.998;2023-02-11T01:28:43;3.20;;;1.60;;
13485;SDS011;6815;59.336;17.998;2023-02-11T01:31:09;2.07;;;1.57;;
13485;SDS011;6815;59.336;17.998;2023-02-11T01:33:34;2.73;;;1.83;;
13485;SDS011;6815;59.336;17.998;2023-02-11T01:36:00;2.30;;;1.50;;
13485;SDS011;6815;59.336;17.998;2023-02-11T01:38:27;2.30;;;1.60;;
13485;SDS011;6815;59.336;17.998;2023-02-11T01:40:57;2.77;;;1.83;;
13485;SDS011;6815;59.336;17.998;2023-02-11T01:43:25;3.73;;;1.80;;
13485;SDS011;6815;59.336;17.998;2023-02-11T01:45:54;6.40;;;1.70;;
13485;SDS011;6815;59.336;17.998;2023-02-11T01:48:26;4.37;;;1.80;;
13485;SDS011;6815;59.336;17.998;2023-02-11T01:51:01;3.33;;;1.87;;
13485;SDS011;6815;59.336;17.998;2023-02-11T01:53:32;3.00;;;1.87;;
13485;SDS011;6815;59.336;17.998;2023-02-11T01:56:19;3.17;;;1.77;;
13485;SDS011;6815;59.336;17.998;2023-02-11T01:59:07;2.67;;;1.97;;
13485;SDS011;6815;59.336;17.998;2023-02-11T02:01:39;5.03;;;2.07;;
13485;SDS011;6815;59.336;17.998;2023-02-11T02:04:10;3.43;;;1.70;;
13485;SDS011;6815;59.336;17.998;2023-02-11T02:06:39;3.27;;;1.93;;
13485;SDS011;6815;59.336;17.998;2023-02-11T02:09:18;2.60;;;1.87;;
13485;SDS011;6815;59.336;17.998;2023-02-11T02:11:46;3.13;;;2.10;;
13485;SDS011;6815;59.336;17.998;2023-02-11T02:14:12;3.63;;;1.80;;
13485;SDS011;6815;59.336;17.998;2023-02-11T02:16:38;3.83;;;2.07;;
13485;SDS011;6815;59.336;17.998;2023-02-11T02:19:10;2.40;;;1.93;;
13485;SDS011;6815;59.336;17.998;2023-02-11T02:27:49;3.23;;;2.00;;
13485;SDS011;6815;59.336;17.998;2023-02-11T02:35:52;3.97;;;2.40;;
13485;SDS011;6815;59.336;17.998;2023-02-11T02:38:28;2.53;;;2.00;;
13485;SDS011;6815;59.336;17.998;2023-02-11T02:41:11;3.33;;;2.10;;
13485;SDS011;6815;59.336;17.998;2023-02-11T02:43:50;5.13;;;2.80;;
13485;SDS011;6815;59.336;17.998;2023-02-11T02:46:21;3.13;;;2.03;;
13485;SDS011;6815;59.336;17.998;2023-02-11T02:48:56;4.90;;;2.20;;
13485;SDS011;6815;59.336;17.998;2023-02-11T02:54:30;3.67;;;2.10;;
13485;SDS011;6815;59.336;17.998;2023-02-11T02:59:30;1.97;;;1.77;;
13485;SDS011;6815;59.336;17.998;2023-02-11T03:02:09;3.23;;;2.10;;
13485;SDS011;6815;59.336;17.998;2023-02-11T03:10:03;2.23;;;2.00;;
13485;SDS011;6815;59.336;17.998;2023-02-11T03:12:33;5.43;;;2.20;;
13485;SDS011;6815;59.336;17.998;2023-02-11T03:15:02;3.07;;;1.87;;
13485;SDS011;6815;59.336;17.998;2023-02-11T03:17:29;2.50;;;1.80;;
13485;SDS011;6815;59.336;17.998;2023-02-11T03:19:57;2.83;;;1.73;;
13485;SDS011;6815;59.336;17.998;2023-02-11T03:22:31;2.77;;;1.47;;
13485;SDS011;6815;59.336;17.998;2023-02-11T03:25:02;2.60;;;1.53;;
13485;SDS011;6815;59.336;17.998;2023-02-11T03:27:32;2.40;;;1.80;;
13485;SDS011;6815;59.336;17.998;2023-02-11T03:30:21;2.30;;;1.47;;
13485;SDS011;6815;59.336;17.998;2023-02-11T03:33:29;3.00;;;1.70;;
13485;SDS011;6815;59.336;17.998;2023-02-11T03:36:22;2.33;;;1.10;;
13485;SDS011;6815;59.336;17.998;2023-02-11T03:38:54;2.60;;;1.30;;
13485;SDS011;6815;59.336;17.998;2023-02-11T03:41:23;0.97;;;0.70;;
13485;SDS011;6815;59.336;17.998;2023-02-11T03:43:50;1.50;;;0.90;;
13485;SDS011;6815;59.336;17.998;2023-02-11T03:46:22;1.23;;;1.03;;
13485;SDS011;6815;59.336;17.998;2023-02-11T03:48:55;0.97;;;0.80;;
13485;SDS011;6815;59.336;17.998;2023-02-11T03:51:26;1.23;;;0.70;;
13485;SDS011;6815;59.336;17.998;2023-02-11T03:53:54;1.20;;;0.70;;
13485;SDS011;6815;59.336;17.998;2023-02-11T03:56:24;1.80;;;0.70;;
13485;SDS011;6815;59.336;17.998;2023-02-11T03:58:53;1.77;;;0.70;;
13485;SDS011;6815;59.336;17.998;2023-02-11T04:01:19;1.50;;;0.60;;
13485;SDS011;6815;59.336;17.998;2023-02-11T04:03:46;0.80;;;0.70;;
13485;SDS011;6815;59.336;17.998;2023-02-11T04:06:12;0.80;;;0.60;;
13485;SDS011;6815;59.336;17.998;2023-02-11T04:08:37;1.37;;;0.70;;
13485;SDS011;6815;59.336;17.998;2023-02-11T04:11:03;1.17;;;0.60;;
13485;SDS011;6815;59.336;17.998;2023-02-11T04:13:28;3.70;;;0.80;;
13485;SDS011;6815;59.336;17.998;2023-02-11T04:15:54;0.87;;;0.57;;
13485;SDS011;6815;59.336;17.998;2023-02-11T04:18:20;1.23;;;0.80;;
13485;SDS011;6815;59.336;17.998;2023-02-11T04:20:45;1.60;;;0.57;;
13485;SDS011;6815;59.336;17.998;2023-02-11T04:23:11;0.73;;;0.50;;
13485;SDS011;6815;59.336;17.998;2023-02-11T04:25:37;1.13;;;0.60;;
13485;SDS011;6815;59.336;17.998;2023-02-11T04:28:02;0.50;;;0.50;;
13485;SDS011;6815;59.336;17.998;2023-02-11T04:30:27;0.67;;;0.50;;
13485;SDS011;6815;59.336;17.998;2023-02-11T04:32:53;1.23;;;0.60;;
13485;SDS011;6815;59.336;17.998;2023-02-11T04:35:19;1.17;;;0.50;;
13485;SDS011;6815;59.336;17.998;2023-02-11T04:37:45;1.27;;;0.60;;
13485;SDS011;6815;59.336;17.998;2023-02-11T04:40:11;0.53;;;0.53;;
13485;SDS011;6815;59.336;17.998;2023-02-11T04:42:37;1.63;;;1.07;;
13485;SDS011;6815;59.336;17.998;2023-02-11T04:45:02;2.27;;;0.73;;
13485;SDS011;6815;59.336;17.998;2023-02-11T04:47:28;2.10;;;0.50;;
13485;SDS011;6815;59.336;17.998;2023-02-11T04:49:53;2.67;;;0.80;;
13485;SDS011;6815;59.336;17.998;2023-02-11T04:52:19;1.90;;;0.60;;
13485;SDS011;6815;59.336;17.998;2023-02-11T04:54:45;1.77;;;0.60;;
13485;SDS011;6815;59.336;17.998;2023-02-11T04:57:10;2.07;;;0.60;;
13485;SDS011;6815;59.336;17.998;2023-02-11T04:59:35;2.00;;;0.60;;
13485;SDS011;6815;59.336;17.998;2023-02-11T05:02:01;1.97;;;0.97;;
13485;SDS011;6815;59.336;17.998;2023-02-11T05:04:28;3.07;;;0.70;;
13485;SDS011;6815;59.336;17.998;2023-02-11T05:06:53;0.47;;;0.47;;
13485;SDS011;6815;59.336;17.998;2023-02-11T05:09:19;1.80;;;0.67;;
13485;SDS011;6815;59.336;17.998;2023-02-11T05:11:44;1.03;;;0.53;;
13485;SDS011;6815;59.336;17.998;2023-02-11T05:14:10;0.57;;;0.50;;
13485;SDS011;6815;59.336;17.998;2023-02-11T05:16:35;1.07;;;0.60;;
13485;SDS011;6815;59.336;17.998;2023-02-11T05:19:01;0.97;;;0.67;;
13485;SDS011;6815;59.336;17.998;2023-02-11T05:21:26;2.00;;;0.80;;
13485;SDS011;6815;59.336;17.998;2023-02-11T05:23:53;2.50;;;0.60;;
13485;SDS011;6815;59.336;17.998;2023-02-11T05:26:18;2.20;;;0.60;;
13485;SDS011;6815;59.336;17.998;2023-02-11T05:28:44;2.87;;;0.83;;
13485;SDS011;6815;59.336;17.998;2023-02-11T05:31:11;1.03;;;0.50;;
13485;SDS011;6815;59.336;17.998;2023-02-11T05:33:40;1.20;;;0.60;;
13485;SDS011;6815;59.336;17.998;2023-02-11T05:36:07;1.17;;;0.57;;
13485;SDS011;6815;59.336;17.998;2023-02-11T05:38:34;1.33;;;0.70;;
13485;SDS011;6815;59.336;17.998;2023-02-11T05:41:01;1.57;;;0.73;;
13485;SDS011;6815;59.336;17.998;2023-02-11T05:43:26;2.57;;;0.70;;
13485;SDS011;6815;59.336;17.998;2023-02-11T05:45:52;1.10;;;0.87;;
13485;SDS011;6815;59.336;17.998;2023-02-11T05:48:17;1.23;;;0.60;;
13485;SDS011;6815;59.336;17.998;2023-02-11T05:50:43;4.63;;;0.90;;
13485;SDS011;6815;59.336;17.998;2023-02-11T05:53:09;0.83;;;0.73;;
13485;SDS011;6815;59.336;17.998;2023-02-11T05:55:34;1.63;;;0.80;;
13485;SDS011;6815;59.336;17.998;2023-02-11T05:58:00;1.63;;;0.70;;
13485;SDS011;6815;59.336;17.998;2023-02-11T06:00:25;4.30;;;1.10;;
13485;SDS011;6815;59.336;17.998;2023-02-11T06:02:51;2.33;;;0.90;;
13485;SDS011;6815;59.336;17.998;2023-02-11T06:05:17;2.10;;;0.80;;
13485;SDS011;6815;59.336;17.998;2023-02-11T06:07:42;3.77;;;0.80;;
13485;SDS011;6815;59.336;17.998;2023-02-11T06:10:08;1.53;;;0.80;;
13485;SDS011;6815;59.336;17.998;2023-02-11T06:12:35;2.40;;;0.80;;
13485;SDS011;6815;59.336;17.998;2023-02-11T06:15:01;2.83;;;0.80;;
13485;SDS011;6815;59.336;17.998;2023-02-11T06:17:26;3.00;;;0.90;;
13485;SDS011;6815;59.336;17.998;2023-02-11T06:19:55;1.83;;;0.90;;
13485;SDS011;6815;59.336;17.998;2023-02-11T06:22:22;3.13;;;0.73;;
13485;SDS011;6815;59.336;17.998;2023-02-11T06:24:47;2.60;;;0.90;;
13485;SDS011;6815;59.336;17.998;2023-02-11T06:27:13;1.40;;;0.83;;
13485;SDS011;6815;59.336;17.998;2023-02-11T06:29:38;3.27;;;0.80;;
13485;SDS011;6815;59.336;17.998;2023-02-11T06:32:04;1.83;;;0.80;;
13485;SDS011;6815;59.336;17.998;2023-02-11T06:34:29;2.20;;;0.90;;
13485;SDS011;6815;59.336;17.998;2023-02-11T06:36:55;2.83;;;1.10;;
13485;SDS011;6815;59.336;17.998;2023-02-11T06:39:20;1.53;;;0.80;;
13485;SDS011;6815;59.336;17.998;2023-02-11T06:41:46;1.90;;;0.80;;
13485;SDS011;6815;59.336;17.998;2023-02-11T06:44:11;2.33;;;0.97;;
13485;SDS011;6815;59.336;17.998;2023-02-11T06:46:37;2.23;;;1.00;;
13485;SDS011;6815;59.336;17.998;2023-02-11T06:49:02;3.33;;;1.10;;
13485;SDS011;6815;59.336;17.998;2023-02-11T06:51:28;3.30;;;0.93;;
13485;SDS011;6815;59.336;17.998;2023-02-11T06:53:55;2.53;;;0.90;;
13485;SDS011;6815;59.336;17.998;2023-02-11T06:56:21;1.77;;;0.80;;
13485;SDS011;6815;59.336;17.998;2023-02-11T06:58:51;4.57;;;1.00;;
13485;SDS011;6815;59.336;17.998;2023-02-11T07:01:19;2.23;;;0.93;;
13485;SDS011;6815;59.336;17.998;2023-02-11T07:03:46;2.97;;;1.00;;
13485;SDS011;6815;59.336;17.998;2023-02-11T07:06:13;2.43;;;0.90;;
13485;SDS011;6815;59.336;17.998;2023-02-11T07:08:40;3.13;;;0.90;;
13485;SDS011;6815;59.336;17.998;2023-02-11T07:11:20;2.93;;;0.80;;
13485;SDS011;6815;59.336;17.998;2023-02-11T07:13:52;2.40;;;1.00;;
13485;SDS011;6815;59.336;17.998;2023-02-11T07:16:19;4.10;;;1.40;;
13485;SDS011;6815;59.336;17.998;2023-02-11T07:18:46;2.80;;;0.97;;
13485;SDS011;6815;59.336;17.998;2023-02-11T07:21:13;2.83;;;0.93;;
13485;SDS011;6815;59.336;17.998;2023-02-11T07:23:41;1.50;;;1.00;;
13485;SDS011;6815;59.336;17.998;2023-02-11T07:26:10;3.03;;;1.13;;
13485;SDS011;6815;59.336;17.998;2023-02-11T07:28:38;2.50;;;0.90;;
13485;SDS011;6815;59.336;17.998;2023-02-11T07:31:09;3.20;;;1.43;;
13485;SDS011;6815;59.336;17.998;2023-02-11T07:33:37;3.30;;;1.33;;
13485;SDS011;6815;59.336;17.998;2023-02-11T07:36:04;4.40;;;1.50;;
13485;SDS011;6815;59.336;17.998;2023-02-11T07:38:31;3.47;;;1.40;;
13485;SDS011;6815;59.336;17.998;2023-02-11T07:41:08;4.20;;;1.37;;
13485;SDS011;6815;59.336;17.998;2023-02-11T07:43:35;3.93;;;1.37;;
13485;SDS011;6815;59.336;17.998;2023-02-11T07:46:03;4.53;;;1.30;;
13485;SDS011;6815;59.336;17.998;2023-02-11T07:48:30;3.07;;;1.23;;
13485;SDS011;6815;59.336;17.998;2023-02-11T07:51:03;3.13;;;1.40;;
13485;SDS011;6815;59.336;17.998;2023-02-11T07:53:32;3.47;;;1.23;;
13485;SDS011;6815;59.336;17.998;2023-02-11T07:55:58;3.23;;;1.63;;
13485;SDS011;6815;59.336;17.998;2023-02-11T07:58:23;6.87;;;1.50;;
13485;SDS011;6815;59.336;17.998;2023-02-11T08:00:49;4.87;;;1.40;;
13485;SDS011;6815;59.336;17.998;2023-02-11T08:03:14;5.03;;;1.43;;
13485;SDS011;6815;59.336;17.998;2023-02-11T08:05:40;3.30;;;1.50;;
13485;SDS011;6815;59.336;17.998;2023-02-11T08:08:05;6.10;;;1.93;;
13485;SDS011;6815;59.336;17.998;2023-02-11T08:10:30;3.70;;;1.30;;
13485;SDS011;6815;59.336;17.998;2023-02-11T08:12:56;5.30;;;1.50;;
13485;SDS011;6815;59.336;17.998;2023-02-11T08:15:22;5.10;;;1.20;;
13485;SDS011;6815;59.336;17.998;2023-02-11T08:17:48;3.77;;;1.30;;
13485;SDS011;6815;59.336;17.998;2023-02-11T08:20:13;3.87;;;1.30;;
13485;SDS011;6815;59.336;17.998;2023-02-11T08:22:39;5.50;;;1.47;;
13485;SDS011;6815;59.336;17.998;2023-02-11T08:25:05;5.13;;;1.50;;
13485;SDS011;6815;59.336;17.998;2023-02-11T08:27:30;2.80;;;1.10;;
13485;SDS011;6815;59.336;17.998;2023-02-11T08:29:56;4.23;;;1.80;;
13485;SDS011;6815;59.336;17.998;2023-02-11T08:32:23;2.57;;;1.23;;
13485;SDS011;6815;59.336;17.998;2023-02-11T08:34:52;3.30;;;1.50;;
13485;SDS011;6815;59.336;17.998;2023-02-11T08:37:18;3.63;;;1.20;;
13485;SDS011;6815;59.336;17.998;2023-02-11T08:39:44;4.23;;;1.40;;
13485;SDS011;6815;59.336;17.998;2023-02-11T08:42:11;3.77;;;1.20;;
13485;SDS011;6815;59.336;17.998;2023-02-11T08:44:37;3.47;;;1.67;;
13485;SDS011;6815;59.336;17.998;2023-02-11T08:47:03;5.27;;;1.30;;
13485;SDS011;6815;59.336;17.998;2023-02-11T08:49:29;2.40;;;1.20;;
13485;SDS011;6815;59.336;17.998;2023-02-11T08:51:55;4.57;;;1.53;;
13485;SDS011;6815;59.336;17.998;2023-02-11T08:54:23;4.57;;;1.40;;
13485;SDS011;6815;59.336;17.998;2023-02-11T08:56:49;2.40;;;1.40;;
13485;SDS011;6815;59.336;17.998;2023-02-11T08:59:15;6.20;;;1.37;;
13485;SDS011;6815;59.336;17.998;2023-02-11T09:01:41;3.80;;;1.20;;
13485;SDS011;6815;59.336;17.998;2023-02-11T09:04:08;6.90;;;1.33;;
13485;SDS011;6815;59.336;17.998;2023-02-11T09:06:35;2.60;;;1.40;;
13485;SDS011;6815;59.336;17.998;2023-02-11T09:09:00;4.50;;;1.37;;
13485;SDS011;6815;59.336;17.998;2023-02-11T09:11:27;3.53;;;1.83;;
13485;SDS011;6815;59.336;17.998;2023-02-11T09:13:58;6.17;;;1.53;;
13485;SDS011;6815;59.336;17.998;2023-02-11T09:16:27;2.83;;;1.10;;
13485;SDS011;6815;59.336;17.998;2023-02-11T09:18:57;4.47;;;2.00;;
13485;SDS011;6815;59.336;17.998;2023-02-11T09:21:24;3.67;;;1.57;;
13485;SDS011;6815;59.336;17.998;2023-02-11T09:23:50;4.00;;;1.30;;
13485;SDS011;6815;59.336;17.998;2023-02-11T09:26:17;4.30;;;1.47;;
13485;SDS011;6815;59.336;17.998;2023-02-11T09:28:44;4.00;;;1.60;;
13485;SDS011;6815;59.336;17.998;2023-02-11T09:31:12;4.17;;;1.30;;
13485;SDS011;6815;59.336;17.998;2023-02-11T09:33:42;2.93;;;1.37;;
13485;SDS011;6815;59.336;17.998;2023-02-11T09:36:12;4.07;;;1.40;;
13485;SDS011;6815;59.336;17.998;2023-02-11T09:38:42;3.40;;;1.53;;
13485;SDS011;6815;59.336;17.998;2023-02-11T09:41:32;2.73;;;1.20;;
13485;SDS011;6815;59.336;17.998;2023-02-11T09:43:57;4.87;;;1.20;;
13485;SDS011;6815;59.336;17.998;2023-02-11T09:46:35;4.17;;;1.10;;
13485;SDS011;6815;59.336;17.998;2023-02-11T09:49:05;5.27;;;1.40;;
13485;SDS011;6815;59.336;17.998;2023-02-11T09:51:35;3.47;;;1.50;;
13485;SDS011;6815;59.336;17.998;2023-02-11T09:54:12;7.00;;;1.40;;
13485;SDS011;6815;59.336;17.998;2023-02-11T09:56:47;5.23;;;1.67;;
13485;SDS011;6815;59.336;17.998;2023-02-11T09:59:13;5.43;;;1.80;;
13485;SDS011;6815;59.336;17.998;2023-02-11T10:01:59;4.03;;;1.43;;
13485;SDS011;6815;59.336;17.998;2023-02-11T10:15:44;4.10;;;1.47;;
13485;SDS011;6815;59.336;17.998;2023-02-11T10:23:28;7.47;;;2.47;;
13485;SDS011;6815;59.336;17.998;2023-02-11T10:25:58;6.30;;;1.70;;
13485;SDS011;6815;59.336;17.998;2023-02-11T10:28:33;2.67;;;1.30;;
13485;SDS011;6815;59.336;17.998;2023-02-11T10:31:00;5.80;;;1.60;;
13485;SDS011;6815;59.336;17.998;2023-02-11T10:36:28;5.73;;;1.60;;
13485;SDS011;6815;59.336;17.998;2023-02-11T10:39:18;6.37;;;1.57;;
13485;SDS011;6815;59.336;17.998;2023-02-11T10:41:44;5.87;;;1.67;;
13485;SDS011;6815;59.336;17.998;2023-02-11T10:44:31;2.60;;;1.40;;
13485;SDS011;6815;59.336;17.998;2023-02-11T10:47:04;3.63;;;1.57;;
13485;SDS011;6815;59.336;17.998;2023-02-11T10:49:51;5.43;;;1.70;;
13485;SDS011;6815;59.336;17.998;2023-02-11T10:57:27;4.33;;;1.80;;
13485;SDS011;6815;59.336;17.998;2023-02-11T10:59:56;4.50;;;1.47;;
13485;SDS011;6815;59.336;17.998;2023-02-11T11:02:32;4.03;;;1.83;;
13485;SDS011;6815;59.336;17.998;2023-02-11T11:05:02;5.17;;;1.63;;
13485;SDS011;6815;59.336;17.998;2023-02-11T11:07:40;4.13;;;1.57;;
13485;SDS011;6815;59.336;17.998;2023-02-11T11:10:35;3.77;;;1.63;;
13485;SDS011;6815;59.336;17.998;2023-02-11T11:13:01;5.53;;;1.90;;
13485;SDS011;6815;59.336;17.998;2023-02-11T11:15:28;5.07;;;1.70;;
13485;SDS011;6815;59.336;17.998;2023-02-11T11:18:09;7.93;;;1.50;;
13485;SDS011;6815;59.336;17.998;2023-02-11T11:20:35;8.03;;;1.60;;
13485;SDS011;6815;59.336;17.998;2023-02-11T11:23:10;4.77;;;1.93;;
13485;SDS011;6815;59.336;17.998;2023-02-11T11:25:38;5.23;;;1.40;;
13485;SDS011;6815;59.336;17.998;2023-02-11T11:28:15;5.47;;;1.70;;
13485;SDS011;6815;59.336;17.998;2023-02-11T11:30:49;4.07;;;1.60;;
13485;SDS011;6815;59.336;17.998;2023-02-11T11:33:22;5.20;;;1.53;;
13485;SDS011;6815;59.336;17.998;2023-02-11T11:36:08;4.77;;;1.37;;
13485;SDS011;6815;59.336;17.998;2023-02-11T11:38:37;6.83;;;1.60;;
13485;SDS011;6815;59.336;17.998;2023-02-11T11:43:55;4.43;;;1.40;;
13485;SDS011;6815;59.336;17.998;2023-02-11T11:46:33;3.53;;;1.20;;
13485;SDS011;6815;59.336;17.998;2023-02-11T11:54:59;5.07;;;1.47;;
13485;SDS011;6815;59.336;17.998;2023-02-11T11:57:35;4.93;;;1.23;;
13485;SDS011;6815;59.336;17.998;2023-02-11T12:00:02;6.53;;;1.67;;
13485;SDS011;6815;59.336;17.998;2023-02-11T12:02:54;3.70;;;1.17;;
13485;SDS011;6815;59.336;17.998;2023-02-11T12:05:26;5.57;;;1.23;;
13485;SDS011;6815;59.336;17.998;2023-02-11T12:26:18;4.20;;;1.23;;
13485;SDS011;6815;59.336;17.998;2023-02-11T12:42:45;6.03;;;1.53;;
13485;SDS011;6815;59.336;17.998;2023-02-11T12:56:07;2.37;;;1.30;;
13485;SDS011;6815;59.336;17.998;2023-02-11T12:58:45;5.30;;;1.40;;
13485;SDS011;6815;59.336;17.998;2023-02-11T13:01:17;6.27;;;1.70;;
13485;SDS011;6815;59.336;17.998;2023-02-11T13:04:22;5.93;;;1.50;;
13485;SDS011;6815;59.336;17.998;2023-02-11T13:06:55;3.50;;;1.30;;
13485;SDS011;6815;59.336;17.998;2023-02-11T13:09:34;3.60;;;1.30;;
13485;SDS011;6815;59.336;17.998;2023-02-11T13:12:05;5.50;;;1.40;;
13485;SDS011;6815;59.336;17.998;2023-02-11T13:14:52;1.83;;;1.13;;
13485;SDS011;6815;59.336;17.998;2023-02-11T13:20:22;5.27;;;1.37;;
13485;SDS011;6815;59.336;17.998;2023-02-11T13:23:11;5.70;;;1.57;;
13485;SDS011;6815;59.336;17.998;2023-02-11T13:25:56;3.27;;;1.30;;
13485;SDS011;6815;59.336;17.998;2023-02-11T13:28:40;5.90;;;1.83;;
13485;SDS011;6815;59.336;17.998;2023-02-11T13:31:12;6.57;;;1.77;;
13485;SDS011;6815;59.336;17.998;2023-02-11T13:33:40;4.30;;;1.80;;
13485;SDS011;6815;59.336;17.998;2023-02-11T13:39:09;7.20;;;1.43;;
13485;SDS011;6815;59.336;17.998;2023-02-11T13:41:45;1.83;;;1.23;;
13485;SDS011;6815;59.336;17.998;2023-02-11T13:49:42;5.47;;;1.80;;
13485;SDS011;6815;59.336;17.998;2023-02-11T13:52:20;4.00;;;1.30;;
13485;SDS011;6815;59.336;17.998;2023-02-11T13:54:50;5.67;;;1.53;;
13485;SDS011;6815;59.336;17.998;2023-02-11T13:59:53;3.60;;;1.17;;
13485;SDS011;6815;59.336;17.998;2023-02-11T14:02:39;7.13;;;1.50;;
13485;SDS011;6815;59.336;17.998;2023-02-11T14:05:25;4.83;;;1.87;;
13485;SDS011;6815;59.336;17.998;2023-02-11T14:14:02;4.10;;;1.17;;
13485;SDS011;6815;59.336;17.998;2023-02-11T14:16:29;3.43;;;1.37;;
13485;SDS011;6815;59.336;17.998;2023-02-11T14:23:52;5.13;;;1.20;;
13485;SDS011;6815;59.336;17.998;2023-02-11T14:42:46;5.33;;;1.37;;
13485;SDS011;6815;59.336;17.998;2023-02-11T14:45:15;5.37;;;1.37;;
13485;SDS011;6815;59.336;17.998;2023-02-11T14:50:19;2.23;;;0.90;;
13485;SDS011;6815;59.336;17.998;2023-02-11T14:52:49;2.40;;;1.20;;
13485;SDS011;6815;59.336;17.998;2023-02-11T14:55:35;1.50;;;1.00;;
13485;SDS011;6815;59.336;17.998;2023-02-11T14:58:18;2.80;;;0.93;;
13485;SDS011;6815;59.336;17.998;2023-02-11T15:05:52;2.33;;;1.20;;
13485;SDS011;6815;59.336;17.998;2023-02-11T15:08:41;2.30;;;1.27;;
13485;SDS011;6815;59.336;17.998;2023-02-11T15:11:11;2.60;;;1.23;;
13485;SDS011;6815;59.336;17.998;2023-02-11T15:13:39;3.23;;;1.30;;
13485;SDS011;6815;59.336;17.998;2023-02-11T15:16:12;3.60;;;1.60;;
13485;SDS011;6815;59.336;17.998;2023-02-11T15:18:44;3.87;;;1.27;;
13485;SDS011;6815;59.336;17.998;2023-02-11T15:21:19;4.80;;;1.30;;
13485;SDS011;6815;59.336;17.998;2023-02-11T15:24:03;8.13;;;1.87;;
13485;SDS011;6815;59.336;17.998;2023-02-11T15:26:31;3.97;;;1.37;;
13485;SDS011;6815;59.336;17.998;2023-02-11T15:28:57;6.00;;;1.90;;
13485;SDS011;6815;59.336;17.998;2023-02-11T15:31:23;5.17;;;1.63;;
13485;SDS011;6815;59.336;17.998;2023-02-11T15:33:50;3.77;;;1.40;;
13485;SDS011;6815;59.336;17.998;2023-02-11T15:36:20;2.80;;;1.57;;
13485;SDS011;6815;59.336;17.998;2023-02-11T15:39:53;6.60;;;1.73;;
13485;SDS011;6815;59.336;17.998;2023-02-11T15:45:09;5.93;;;1.40;;
13485;SDS011;6815;59.336;17.998;2023-02-11T15:47:51;4.73;;;1.93;;
13485;SDS011;6815;59.336;17.998;2023-02-11T15:50:19;3.70;;;1.67;;
13485;SDS011;6815;59.336;17.998;2023-02-11T15:52:46;4.47;;;1.80;;
13485;SDS011;6815;59.336;17.998;2023-02-11T15:55:14;7.00;;;1.60;;
13485;SDS011;6815;59.336;17.998;2023-02-11T15:57:42;5.33;;;1.60;;
13485;SDS011;6815;59.336;17.998;2023-02-11T16:00:14;3.83;;;1.60;;
13485;SDS011;6815;59.336;17.998;2023-02-11T16:02:45;4.33;;;1.80;;
13485;SDS011;6815;59.336;17.998;2023-02-11T16:05:34;2.97;;;1.73;;
13485;SDS011;6815;59.336;17.998;2023-02-11T16:11:05;4.43;;;1.80;;
13485;SDS011;6815;59.336;17.998;2023-02-11T16:13:51;6.63;;;2.00;;
13485;SDS011;6815;59.336;17.998;2023-02-11T16:16:21;4.43;;;1.97;;
13485;SDS011;6815;59.336;17.998;2023-02-11T16:18:49;3.57;;;2.10;;
13485;SDS011;6815;59.336;17.998;2023-02-11T16:21:17;5.30;;;2.20;;
13485;SDS011;6815;59.336;17.998;2023-02-11T16:23:49;4.97;;;1.93;;
13485;SDS011;6815;59.336;17.998;2023-02-11T16:26:25;2.53;;;1.90;;
13485;SDS011;6815;59.336;17.998;2023-02-11T16:31:52;4.00;;;1.80;;
13485;SDS011;6815;59.336;17.998;2023-02-11T16:34:28;4.73;;;2.03;;
13485;SDS011;6815;59.336;17.998;2023-02-11T16:36:54;5.53;;;2.30;;
13485;SDS011;6815;59.336;17.998;2023-02-11T16:39:21;3.83;;;2.00;;
13485;SDS011;6815;59.336;17.998;2023-02-11T16:41:46;6.57;;;1.70;;
13485;SDS011;6815;59.336;17.998;2023-02-11T16:44:14;5.97;;;2.30;;
13485;SDS011;6815;59.336;17.998;2023-02-11T16:46:40;5.23;;;1.97;;
13485;SDS011;6815;59.336;17.998;2023-02-11T16:49:10;10.07;;;2.87;;
13485;SDS011;6815;59.336;17.998;2023-02-11T16:51:42;5.23;;;2.00;;
13485;SDS011;6815;59.336;17.998;2023-02-11T16:54:11;6.53;;;2.13;;
13485;SDS011;6815;59.336;17.998;2023-02-11T16:56:38;4.13;;;2.20;;
13485;SDS011;6815;59.336;17.998;2023-02-11T16:59:04;4.53;;;2.03;;
13485;SDS011;6815;59.336;17.998;2023-02-11T17:01:29;6.23;;;2.40;;
13485;SDS011;6815;59.336;17.998;2023-02-11T17:03:56;6.60;;;3.00;;
13485;SDS011;6815;59.336;17.998;2023-02-11T17:06:21;5.87;;;2.80;;
13485;SDS011;6815;59.336;17.998;2023-02-11T17:08:47;6.20;;;2.00;;
13485;SDS011;6815;59.336;17.998;2023-02-11T17:11:13;4.97;;;2.17;;
13485;SDS011;6815;59.336;17.998;2023-02-11T17:13:41;5.33;;;1.93;;
13485;SDS011;6815;59.336;17.998;2023-02-11T17:16:27;4.77;;;2.27;;
13485;SDS011;6815;59.336;17.998;2023-02-11T17:18:53;5.53;;;2.40;;
13485;SDS011;6815;59.336;17.998;2023-02-11T17:21:19;4.23;;;2.40;;
13485;SDS011;6815;59.336;17.998;2023-02-11T17:23:44;6.63;;;2.63;;
13485;SDS011;6815;59.336;17.998;2023-02-11T17:26:10;3.93;;;2.27;;
13485;SDS011;6815;59.336;17.998;2023-02-11T17:28:35;7.53;;;3.17;;
13485;SDS011;6815;59.336;17.998;2023-02-11T17:31:05;6.43;;;2.93;;
13485;SDS011;6815;59.336;17.998;2023-02-11T17:33:31;6.83;;;3.00;;
13485;SDS011;6815;59.336;17.998;2023-02-11T17:35:57;7.20;;;2.70;;
13485;SDS011;6815;59.336;17.998;2023-02-11T17:38:22;8.03;;;3.60;;
13485;SDS011;6815;59.336;17.998;2023-02-11T17:40:55;5.73;;;2.97;;